sensor_id;sensor_type;location;lat;lon;timestamp;temperature;humidity
33095;DHT22;19459;53.044;8.910;2022-12-10T00:01:18;1.00;99.90
33095;DHT22;19459;53.044;8.910;2022-12-10T00:03:44;0.90;99.90
33095;DHT22;19459;53.044;8.910;2022-12-10T00:06:13;0.90;99.90
33095;DHT22;19459;53.044;8.910;2022-12-10T00:08:41;0.90;99.90
33095;DHT22;19459;53.044;8.910;2022-12-10T00:11:08;0.80;99.90
33095;DHT22;19459;53.044;8.910;2022-12-10T00:13:36;0.80;99.90
33095;DHT22;19459;53.044;8.910;2022-12-10T00:16:04;0.90;99.90
33095;DHT22;19459;53.044;8.910;2022-12-10T00:18:32;0.90;99.90
33095;DHT22;19459;53.044;8.910;2022-12-10T00:21:10;0.80;99.90
33095;DHT22;19459;53.044;8.910;2022-12-10T00:23:38;0.90;99.90
33095;DHT22;19459;53.044;8.910;2022-12-10T00:28:49;0.90;99.90
33095;DHT22;19459;53.044;8.910;2022-12-10T00:31:20;0.90;99.90
33095;DHT22;19459;53.044;8.910;2022-12-10T00:33:48;0.90;99.90
33095;DHT22;19459;53.044;8.910;2022-12-10T00:36:20;0.90;99.90
33095;DHT22;19459;53.044;8.910;2022-12-10T00:38:52;0.90;99.90
33095;DHT22;19459;53.044;8.910;2022-12-10T00:41:19;0.90;99.90
33095;DHT22;19459;53.044;8.910;2022-12-10T00:43:45;1.00;99.90
33095;DHT22;19459;53.044;8.910;2022-12-10T00:46:12;0.90;99.90
33095;DHT22;19459;53.044;8.910;2022-12-10T00:48:39;0.90;99.90
33095;DHT22;19459;53.044;8.910;2022-12-10T00:51:08;0.90;99.90
33095;DHT22;19459;53.044;8.910;2022-12-10T00:53:45;0.90;99.90
33095;DHT22;19459;53.044;8.910;2022-12-10T00:56:14;0.90;99.90
33095;DHT22;19459;53.044;8.910;2022-12-10T00:58:41;0.90;99.90
33095;DHT22;19459;53.044;8.910;2022-12-10T01:03:49;0.90;99.90
33095;DHT22;19459;53.044;8.910;2022-12-10T01:06:25;0.90;99.90
33095;DHT22;19459;53.044;8.910;2022-12-10T01:08:55;1.00;99.90
33095;DHT22;19459;53.044;8.910;2022-12-10T01:11:25;1.00;99.90
33095;DHT22;19459;53.044;8.910;2022-12-10T01:13:52;1.00;99.90
33095;DHT22;19459;53.044;8.910;2022-12-10T01:16:19;0.90;99.90
33095;DHT22;19459;53.044;8.910;2022-12-10T01:18:46;0.90;99.90
33095;DHT22;19459;53.044;8.910;2022-12-10T01:21:15;0.90;99.90
33095;DHT22;19459;53.044;8.910;2022-12-10T01:23:45;0.90;99.90
33095;DHT22;19459;53.044;8.910;2022-12-10T01:26:15;0.90;99.90
33095;DHT22;19459;53.044;8.910;2022-12-10T01:28:43;0.90;99.90
33095;DHT22;19459;53.044;8.910;2022-12-10T01:31:23;0.80;99.90
33095;DHT22;19459;53.044;8.910;2022-12-10T01:33:51;0.80;99.90
33095;DHT22;19459;53.044;8.910;2022-12-10T01:36:23;0.80;99.90
33095;DHT22;19459;53.044;8.910;2022-12-10T01:38:50;0.80;99.90
33095;DHT22;19459;53.044;8.910;2022-12-10T01:41:23;0.80;99.90
33095;DHT22;19459;53.044;8.910;2022-12-10T01:44:53;0.80;99.90
33095;DHT22;19459;53.044;8.910;2022-12-10T01:46:54;0.80;99.90
33095;DHT22;19459;53.044;8.910;2022-12-10T01:49:24;0.80;99.90
33095;DHT22;19459;53.044;8.910;2022-12-10T01:52:06;0.90;99.90
33095;DHT22;19459;53.044;8.910;2022-12-10T01:54:36;0.80;99.90
33095;DHT22;19459;53.044;8.910;2022-12-10T01:57:05;0.80;99.90
33095;DHT22;19459;53.044;8.910;2022-12-10T01:59:36;0.70;99.90
33095;DHT22;19459;53.044;8.910;2022-12-10T02:13:08;0.80;99.90
33095;DHT22;19459;53.044;8.910;2022-12-10T02:15:56;0.90;99.90
33095;DHT22;19459;53.044;8.910;2022-12-10T02:21:06;0.90;99.90
33095;DHT22;19459;53.044;8.910;2022-12-10T02:23:38;0.80;99.90
33095;DHT22;19459;53.044;8.910;2022-12-10T02:26:25;0.90;99.90
33095;DHT22;19459;53.044;8.910;2022-12-10T02:32:00;0.90;99.90
33095;DHT22;19459;53.044;8.910;2022-12-10T02:34:29;0.80;99.90
33095;DHT22;19459;53.044;8.910;2022-12-10T02:36:57;0.90;99.90
33095;DHT22;19459;53.044;8.910;2022-12-10T02:39:30;0.80;99.90
33095;DHT22;19459;53.044;8.910;2022-12-10T02:42:00;0.80;99.90
33095;DHT22;19459;53.044;8.910;2022-12-10T02:44:28;0.90;99.90
33095;DHT22;19459;53.044;8.910;2022-12-10T02:46:57;0.80;99.90
33095;DHT22;19459;53.044;8.910;2022-12-10T02:49:24;0.80;99.90
33095;DHT22;19459;53.044;8.910;2022-12-10T02:51:52;0.80;99.90
33095;DHT22;19459;53.044;8.910;2022-12-10T02:54:42;0.90;99.90
33095;DHT22;19459;53.044;8.910;2022-12-10T02:57:43;0.90;99.90
33095;DHT22;19459;53.044;8.910;2022-12-10T03:00:17;0.90;99.90
33095;DHT22;19459;53.044;8.910;2022-12-10T03:02:56;0.80;99.90
33095;DHT22;19459;53.044;8.910;2022-12-10T03:08:19;1.00;99.90
33095;DHT22;19459;53.044;8.910;2022-12-10T03:11:16;1.00;99.90
33095;DHT22;19459;53.044;8.910;2022-12-10T03:16:17;1.00;99.90
33095;DHT22;19459;53.044;8.910;2022-12-10T03:18:44;1.00;99.90
33095;DHT22;19459;53.044;8.910;2022-12-10T03:21:13;1.00;99.90
33095;DHT22;19459;53.044;8.910;2022-12-10T03:23:43;1.00;99.90
33095;DHT22;19459;53.044;8.910;2022-12-10T03:26:12;1.00;99.90
33095;DHT22;19459;53.044;8.910;2022-12-10T03:28:42;1.00;99.90
33095;DHT22;19459;53.044;8.910;2022-12-10T03:31:13;1.00;99.90
33095;DHT22;19459;53.044;8.910;2022-12-10T03:33:40;1.00;99.90
33095;DHT22;19459;53.044;8.910;2022-12-10T03:36:07;1.00;99.90
33095;DHT22;19459;53.044;8.910;2022-12-10T03:38:35;1.00;99.90
33095;DHT22;19459;53.044;8.910;2022-12-10T03:41:02;1.00;99.90
33095;DHT22;19459;53.044;8.910;2022-12-10T03:43:28;1.10;99.90
33095;DHT22;19459;53.044;8.910;2022-12-10T03:45:54;1.10;99.90
33095;DHT22;19459;53.044;8.910;2022-12-10T03:48:20;1.10;99.90
33095;DHT22;19459;53.044;8.910;2022-12-10T03:50:45;1.00;99.90
33095;DHT22;19459;53.044;8.910;2022-12-10T03:53:12;1.00;99.90
33095;DHT22;19459;53.044;8.910;2022-12-10T03:55:38;1.00;99.90
33095;DHT22;19459;53.044;8.910;2022-12-10T03:58:05;1.10;99.90
33095;DHT22;19459;53.044;8.910;2022-12-10T04:00:31;1.00;99.90
33095;DHT22;19459;53.044;8.910;2022-12-10T04:02:56;1.10;99.90
33095;DHT22;19459;53.044;8.910;2022-12-10T04:05:22;1.10;99.90
33095;DHT22;19459;53.044;8.910;2022-12-10T04:07:48;1.10;99.90
33095;DHT22;19459;53.044;8.910;2022-12-10T04:10:14;1.00;99.90
33095;DHT22;19459;53.044;8.910;2022-12-10T04:12:39;1.00;99.90
33095;DHT22;19459;53.044;8.910;2022-12-10T04:15:06;1.00;99.90
33095;DHT22;19459;53.044;8.910;2022-12-10T04:17:50;1.10;99.90
33095;DHT22;19459;53.044;8.910;2022-12-10T04:20:16;1.00;99.90
33095;DHT22;19459;53.044;8.910;2022-12-10T04:23:00;1.10;99.90
33095;DHT22;19459;53.044;8.910;2022-12-10T04:25:45;1.00;99.90
33095;DHT22;19459;53.044;8.910;2022-12-10T04:28:29;1.00;99.90
33095;DHT22;19459;53.044;8.910;2022-12-10T04:30:55;1.10;99.90
33095;DHT22;19459;53.044;8.910;2022-12-10T04:33:21;1.10;99.90
33095;DHT22;19459;53.044;8.910;2022-12-10T04:35:47;1.10;99.90
33095;DHT22;19459;53.044;8.910;2022-12-10T04:38:12;1.00;99.90
33095;DHT22;19459;53.044;8.910;2022-12-10T04:40:38;1.00;99.90
33095;DHT22;19459;53.044;8.910;2022-12-10T04:43:12;1.10;99.90
33095;DHT22;19459;53.044;8.910;2022-12-10T04:45:38;1.10;99.90
33095;DHT22;19459;53.044;8.910;2022-12-10T04:48:04;1.10;99.90
33095;DHT22;19459;53.044;8.910;2022-12-10T04:50:30;1.10;99.90
33095;DHT22;19459;53.044;8.910;2022-12-10T04:52:56;1.10;99.90
33095;DHT22;19459;53.044;8.910;2022-12-10T04:55:21;1.10;99.90
33095;DHT22;19459;53.044;8.910;2022-12-10T04:57:47;1.10;99.90
33095;DHT22;19459;53.044;8.910;2022-12-10T05:00:13;1.10;99.90
33095;DHT22;19459;53.044;8.910;2022-12-10T05:02:39;1.10;99.90
33095;DHT22;19459;53.044;8.910;2022-12-10T05:05:05;1.10;99.90
33095;DHT22;19459;53.044;8.910;2022-12-10T05:07:32;1.10;99.90
33095;DHT22;19459;53.044;8.910;2022-12-10T05:09:58;1.10;99.90
33095;DHT22;19459;53.044;8.910;2022-12-10T05:12:24;1.10;99.90
33095;DHT22;19459;53.044;8.910;2022-12-10T05:14:49;1.10;99.90
33095;DHT22;19459;53.044;8.910;2022-12-10T05:17:15;1.10;99.90
33095;DHT22;19459;53.044;8.910;2022-12-10T05:19:41;1.10;99.90
33095;DHT22;19459;53.044;8.910;2022-12-10T05:22:07;1.10;99.90
33095;DHT22;19459;53.044;8.910;2022-12-10T05:24:52;1.10;99.90
33095;DHT22;19459;53.044;8.910;2022-12-10T05:27:18;1.10;99.90
33095;DHT22;19459;53.044;8.910;2022-12-10T05:29:44;1.10;99.90
33095;DHT22;19459;53.044;8.910;2022-12-10T05:32:09;1.10;99.90
33095;DHT22;19459;53.044;8.910;2022-12-10T05:34:35;1.10;99.90
33095;DHT22;19459;53.044;8.910;2022-12-10T05:37:01;1.10;99.90
33095;DHT22;19459;53.044;8.910;2022-12-10T05:39:27;1.10;99.90
33095;DHT22;19459;53.044;8.910;2022-12-10T05:41:53;1.10;99.90
33095;DHT22;19459;53.044;8.910;2022-12-10T05:44:19;1.10;99.90
33095;DHT22;19459;53.044;8.910;2022-12-10T05:46:44;1.10;99.90
33095;DHT22;19459;53.044;8.910;2022-12-10T05:49:10;1.10;99.90
33095;DHT22;19459;53.044;8.910;2022-12-10T05:51:37;1.10;99.90
33095;DHT22;19459;53.044;8.910;2022-12-10T05:54:05;1.10;99.90
33095;DHT22;19459;53.044;8.910;2022-12-10T05:56:31;1.10;99.90
33095;DHT22;19459;53.044;8.910;2022-12-10T05:59:00;1.10;99.90
33095;DHT22;19459;53.044;8.910;2022-12-10T06:01:29;1.10;99.90
33095;DHT22;19459;53.044;8.910;2022-12-10T06:03:58;1.00;99.90
33095;DHT22;19459;53.044;8.910;2022-12-10T06:06:27;1.10;99.90
33095;DHT22;19459;53.044;8.910;2022-12-10T06:08:55;1.00;99.90
33095;DHT22;19459;53.044;8.910;2022-12-10T06:11:22;1.00;99.90
33095;DHT22;19459;53.044;8.910;2022-12-10T06:13:48;1.00;99.90
33095;DHT22;19459;53.044;8.910;2022-12-10T06:16:14;1.00;99.90
33095;DHT22;19459;53.044;8.910;2022-12-10T06:18:41;1.10;99.90
33095;DHT22;19459;53.044;8.910;2022-12-10T06:21:09;1.00;99.90
33095;DHT22;19459;53.044;8.910;2022-12-10T06:23:37;1.00;99.90
33095;DHT22;19459;53.044;8.910;2022-12-10T06:26:09;1.00;99.90
33095;DHT22;19459;53.044;8.910;2022-12-10T06:28:37;1.00;99.90
33095;DHT22;19459;53.044;8.910;2022-12-10T06:31:03;1.00;99.90
33095;DHT22;19459;53.044;8.910;2022-12-10T06:33:29;1.00;99.90
33095;DHT22;19459;53.044;8.910;2022-12-10T06:35:55;0.90;99.90
33095;DHT22;19459;53.044;8.910;2022-12-10T06:38:21;0.90;99.90
33095;DHT22;19459;53.044;8.910;2022-12-10T06:40:47;0.90;99.90
33095;DHT22;19459;53.044;8.910;2022-12-10T06:43:13;0.90;99.90
33095;DHT22;19459;53.044;8.910;2022-12-10T06:45:40;0.90;99.90
33095;DHT22;19459;53.044;8.910;2022-12-10T06:48:06;0.90;99.90
33095;DHT22;19459;53.044;8.910;2022-12-10T06:50:32;0.90;99.90
33095;DHT22;19459;53.044;8.910;2022-12-10T06:52:58;0.90;99.90
33095;DHT22;19459;53.044;8.910;2022-12-10T06:55:24;0.90;99.90
33095;DHT22;19459;53.044;8.910;2022-12-10T06:57:53;0.90;99.90
33095;DHT22;19459;53.044;8.910;2022-12-10T07:00:20;0.90;99.90
33095;DHT22;19459;53.044;8.910;2022-12-10T07:02:46;0.90;99.90
33095;DHT22;19459;53.044;8.910;2022-12-10T07:05:12;0.90;99.90
33095;DHT22;19459;53.044;8.910;2022-12-10T07:07:38;0.90;99.90
33095;DHT22;19459;53.044;8.910;2022-12-10T07:10:05;1.00;99.90
33095;DHT22;19459;53.044;8.910;2022-12-10T07:12:31;1.00;99.90
33095;DHT22;19459;53.044;8.910;2022-12-10T07:14:57;1.00;99.90
33095;DHT22;19459;53.044;8.910;2022-12-10T07:17:22;0.90;99.90
33095;DHT22;19459;53.044;8.910;2022-12-10T07:19:49;0.90;99.90
33095;DHT22;19459;53.044;8.910;2022-12-10T07:22:14;0.90;99.90
33095;DHT22;19459;53.044;8.910;2022-12-10T07:24:40;0.90;99.90
33095;DHT22;19459;53.044;8.910;2022-12-10T07:27:07;0.90;99.90
33095;DHT22;19459;53.044;8.910;2022-12-10T07:29:34;0.90;99.90
33095;DHT22;19459;53.044;8.910;2022-12-10T07:32:00;0.90;99.90
33095;DHT22;19459;53.044;8.910;2022-12-10T07:34:26;0.90;99.90
33095;DHT22;19459;53.044;8.910;2022-12-10T07:36:52;0.90;99.90
33095;DHT22;19459;53.044;8.910;2022-12-10T07:39:18;0.90;99.90
33095;DHT22;19459;53.044;8.910;2022-12-10T07:41:47;0.90;99.90
33095;DHT22;19459;53.044;8.910;2022-12-10T07:44:15;0.90;99.90
33095;DHT22;19459;53.044;8.910;2022-12-10T07:46:41;0.90;99.90
33095;DHT22;19459;53.044;8.910;2022-12-10T07:49:07;0.90;99.90
33095;DHT22;19459;53.044;8.910;2022-12-10T07:51:33;0.90;99.90
33095;DHT22;19459;53.044;8.910;2022-12-10T07:54:02;0.90;99.90
33095;DHT22;19459;53.044;8.910;2022-12-10T07:56:28;0.90;99.90
33095;DHT22;19459;53.044;8.910;2022-12-10T07:58:54;0.90;99.90
33095;DHT22;19459;53.044;8.910;2022-12-10T08:01:23;0.80;99.90
33095;DHT22;19459;53.044;8.910;2022-12-10T08:03:50;0.90;99.90
33095;DHT22;19459;53.044;8.910;2022-12-10T08:06:18;0.90;99.90
33095;DHT22;19459;53.044;8.910;2022-12-10T08:08:45;1.00;99.90
33095;DHT22;19459;53.044;8.910;2022-12-10T08:11:13;1.00;99.90
33095;DHT22;19459;53.044;8.910;2022-12-10T08:13:39;1.00;99.90
33095;DHT22;19459;53.044;8.910;2022-12-10T08:16:07;0.90;99.90
33095;DHT22;19459;53.044;8.910;2022-12-10T08:18:36;0.90;99.90
33095;DHT22;19459;53.044;8.910;2022-12-10T08:21:06;0.90;99.90
33095;DHT22;19459;53.044;8.910;2022-12-10T08:23:33;0.90;99.90
33095;DHT22;19459;53.044;8.910;2022-12-10T08:26:03;1.00;99.90
33095;DHT22;19459;53.044;8.910;2022-12-10T08:28:33;1.00;99.90
33095;DHT22;19459;53.044;8.910;2022-12-10T08:30:59;1.00;99.90
33095;DHT22;19459;53.044;8.910;2022-12-10T08:33:25;1.00;99.90
33095;DHT22;19459;53.044;8.910;2022-12-10T08:35:51;1.00;99.90
33095;DHT22;19459;53.044;8.910;2022-12-10T08:38:17;1.00;99.90
33095;DHT22;19459;53.044;8.910;2022-12-10T08:40:46;1.00;99.90
33095;DHT22;19459;53.044;8.910;2022-12-10T08:43:15;1.00;99.90
33095;DHT22;19459;53.044;8.910;2022-12-10T08:45:41;1.00;99.90
33095;DHT22;19459;53.044;8.910;2022-12-10T08:48:07;1.00;99.90
33095;DHT22;19459;53.044;8.910;2022-12-10T08:50:32;1.00;99.90
33095;DHT22;19459;53.044;8.910;2022-12-10T08:52:59;0.90;99.90
33095;DHT22;19459;53.044;8.910;2022-12-10T08:55:25;0.90;99.90
33095;DHT22;19459;53.044;8.910;2022-12-10T08:57:51;0.90;99.90
33095;DHT22;19459;53.044;8.910;2022-12-10T09:00:17;1.00;99.90
33095;DHT22;19459;53.044;8.910;2022-12-10T09:02:44;1.00;99.90
33095;DHT22;19459;53.044;8.910;2022-12-10T09:05:10;1.10;99.90
33095;DHT22;19459;53.044;8.910;2022-12-10T09:07:36;1.10;99.90
33095;DHT22;19459;53.044;8.910;2022-12-10T09:10:03;1.10;99.90
33095;DHT22;19459;53.044;8.910;2022-12-10T09:12:29;1.10;99.90
33095;DHT22;19459;53.044;8.910;2022-12-10T09:14:55;1.10;99.90
33095;DHT22;19459;53.044;8.910;2022-12-10T09:17:21;1.20;99.90
33095;DHT22;19459;53.044;8.910;2022-12-10T09:19:47;1.20;99.90
33095;DHT22;19459;53.044;8.910;2022-12-10T09:22:13;1.20;99.90
33095;DHT22;19459;53.044;8.910;2022-12-10T09:24:39;1.10;99.90
33095;DHT22;19459;53.044;8.910;2022-12-10T09:27:04;1.20;99.90
33095;DHT22;19459;53.044;8.910;2022-12-10T09:29:30;1.10;99.90
33095;DHT22;19459;53.044;8.910;2022-12-10T09:31:56;1.10;99.90
33095;DHT22;19459;53.044;8.910;2022-12-10T09:34:22;1.10;99.90
33095;DHT22;19459;53.044;8.910;2022-12-10T09:36:47;1.10;99.90
33095;DHT22;19459;53.044;8.910;2022-12-10T09:39:14;1.10;99.90
33095;DHT22;19459;53.044;8.910;2022-12-10T09:47:09;1.30;99.90
33095;DHT22;19459;53.044;8.910;2022-12-10T09:52:39;1.40;99.90
33095;DHT22;19459;53.044;8.910;2022-12-10T09:57:45;1.30;99.90
33095;DHT22;19459;53.044;8.910;2022-12-10T10:03:02;1.30;99.90
33095;DHT22;19459;53.044;8.910;2022-12-10T10:05:34;1.50;99.90
33095;DHT22;19459;53.044;8.910;2022-12-10T10:08:04;1.50;99.90
33095;DHT22;19459;53.044;8.910;2022-12-10T10:10:35;1.50;99.90
33095;DHT22;19459;53.044;8.910;2022-12-10T10:15:41;1.50;99.90
33095;DHT22;19459;53.044;8.910;2022-12-10T10:18:15;1.60;99.90
33095;DHT22;19459;53.044;8.910;2022-12-10T10:21:00;1.60;99.90
33095;DHT22;19459;53.044;8.910;2022-12-10T10:23:27;1.60;99.90
33095;DHT22;19459;53.044;8.910;2022-12-10T10:25:53;1.60;99.90
33095;DHT22;19459;53.044;8.910;2022-12-10T10:28:21;1.60;99.90
33095;DHT22;19459;53.044;8.910;2022-12-10T10:30:49;1.50;99.90
33095;DHT22;19459;53.044;8.910;2022-12-10T10:33:17;1.50;99.90
33095;DHT22;19459;53.044;8.910;2022-12-10T10:35:49;1.50;99.90
33095;DHT22;19459;53.044;8.910;2022-12-10T10:38:21;1.50;99.90
33095;DHT22;19459;53.044;8.910;2022-12-10T10:40:55;1.50;99.90
33095;DHT22;19459;53.044;8.910;2022-12-10T10:43:33;1.50;99.90
33095;DHT22;19459;53.044;8.910;2022-12-10T10:46:14;1.50;99.90
33095;DHT22;19459;53.044;8.910;2022-12-10T10:48:42;1.50;99.90
33095;DHT22;19459;53.044;8.910;2022-12-10T10:51:19;1.40;99.90
33095;DHT22;19459;53.044;8.910;2022-12-10T10:53:51;1.50;99.90
33095;DHT22;19459;53.044;8.910;2022-12-10T10:56:23;1.50;99.90
33095;DHT22;19459;53.044;8.910;2022-12-10T11:01:26;1.70;99.90
33095;DHT22;19459;53.044;8.910;2022-12-10T11:04:09;1.70;99.90
33095;DHT22;19459;53.044;8.910;2022-12-10T11:06:35;1.80;99.90
33095;DHT22;19459;53.044;8.910;2022-12-10T11:09:01;1.60;99.90
33095;DHT22;19459;53.044;8.910;2022-12-10T11:11:35;1.70;99.90
33095;DHT22;19459;53.044;8.910;2022-12-10T11:14:14;1.80;99.90
33095;DHT22;19459;53.044;8.910;2022-12-10T11:16:46;2.00;99.90
33095;DHT22;19459;53.044;8.910;2022-12-10T11:19:22;2.00;99.90
33095;DHT22;19459;53.044;8.910;2022-12-10T11:21:49;2.00;99.90
33095;DHT22;19459;53.044;8.910;2022-12-10T11:24:18;2.00;99.90
33095;DHT22;19459;53.044;8.910;2022-12-10T11:27:04;2.00;99.90
33095;DHT22;19459;53.044;8.910;2022-12-10T11:30:04;1.90;99.90
33095;DHT22;19459;53.044;8.910;2022-12-10T11:35:59;1.70;99.90
33095;DHT22;19459;53.044;8.910;2022-12-10T11:41:42;1.70;99.90
33095;DHT22;19459;53.044;8.910;2022-12-10T11:44:41;1.70;99.90
33095;DHT22;19459;53.044;8.910;2022-12-10T11:47:29;1.80;99.90
33095;DHT22;19459;53.044;8.910;2022-12-10T11:50:25;1.80;99.90
33095;DHT22;19459;53.044;8.910;2022-12-10T11:52:56;1.70;99.90
33095;DHT22;19459;53.044;8.910;2022-12-10T12:01:13;1.50;99.90
33095;DHT22;19459;53.044;8.910;2022-12-10T12:15:54;1.60;99.90
33095;DHT22;19459;53.044;8.910;2022-12-10T12:18:47;1.60;99.90
33095;DHT22;19459;53.044;8.910;2022-12-10T12:21:17;1.60;99.90
33095;DHT22;19459;53.044;8.910;2022-12-10T12:26:31;1.60;99.90
33095;DHT22;19459;53.044;8.910;2022-12-10T12:32:20;1.50;99.90
33095;DHT22;19459;53.044;8.910;2022-12-10T12:34:52;1.50;99.90
33095;DHT22;19459;53.044;8.910;2022-12-10T12:37:36;1.40;99.90
33095;DHT22;19459;53.044;8.910;2022-12-10T12:40:29;1.40;99.90
33095;DHT22;19459;53.044;8.910;2022-12-10T12:43:03;1.50;99.90
33095;DHT22;19459;53.044;8.910;2022-12-10T12:45:38;1.50;99.90
33095;DHT22;19459;53.044;8.910;2022-12-10T12:48:31;1.50;99.90
33095;DHT22;19459;53.044;8.910;2022-12-10T12:51:09;1.50;99.90
33095;DHT22;19459;53.044;8.910;2022-12-10T12:53:39;1.60;99.90
33095;DHT22;19459;53.044;8.910;2022-12-10T12:59:09;1.40;99.90
33095;DHT22;19459;53.044;8.910;2022-12-10T13:01:58;1.40;99.90
33095;DHT22;19459;53.044;8.910;2022-12-10T13:04:40;1.30;99.90
33095;DHT22;19459;53.044;8.910;2022-12-10T13:07:33;1.40;99.90
33095;DHT22;19459;53.044;8.910;2022-12-10T13:12:48;1.60;99.90
33095;DHT22;19459;53.044;8.910;2022-12-10T13:15:42;1.60;99.90
33095;DHT22;19459;53.044;8.910;2022-12-10T13:23:52;1.40;99.90
33095;DHT22;19459;53.044;8.910;2022-12-10T13:26:30;1.50;99.90
33095;DHT22;19459;53.044;8.910;2022-12-10T13:29:13;1.50;99.90
33095;DHT22;19459;53.044;8.910;2022-12-10T13:32:02;1.50;99.90
33095;DHT22;19459;53.044;8.910;2022-12-10T13:34:36;1.60;99.90
33095;DHT22;19459;53.044;8.910;2022-12-10T13:42:37;1.50;99.90
33095;DHT22;19459;53.044;8.910;2022-12-10T13:50:55;1.40;99.90
33095;DHT22;19459;53.044;8.910;2022-12-10T14:02:33;1.30;99.90
33095;DHT22;19459;53.044;8.910;2022-12-10T14:05:14;1.30;99.90
33095;DHT22;19459;53.044;8.910;2022-12-10T14:07:46;1.30;99.90
33095;DHT22;19459;53.044;8.910;2022-12-10T14:10:16;1.40;99.90
33095;DHT22;19459;53.044;8.910;2022-12-10T14:12:47;1.40;99.90
33095;DHT22;19459;53.044;8.910;2022-12-10T14:15:24;1.40;99.90
33095;DHT22;19459;53.044;8.910;2022-12-10T14:17:59;1.30;99.90
33095;DHT22;19459;53.044;8.910;2022-12-10T14:20:29;1.30;99.90
33095;DHT22;19459;53.044;8.910;2022-12-10T14:22:56;1.30;99.90
33095;DHT22;19459;53.044;8.910;2022-12-10T14:25:47;1.20;99.90
33095;DHT22;19459;53.044;8.910;2022-12-10T14:28:15;1.20;99.90
33095;DHT22;19459;53.044;8.910;2022-12-10T14:30:44;1.20;99.90
33095;DHT22;19459;53.044;8.910;2022-12-10T14:33:18;1.20;99.90
33095;DHT22;19459;53.044;8.910;2022-12-10T14:35:50;1.20;99.90
33095;DHT22;19459;53.044;8.910;2022-12-10T14:38:30;1.20;99.90
33095;DHT22;19459;53.044;8.910;2022-12-10T14:41:02;1.10;99.90
33095;DHT22;19459;53.044;8.910;2022-12-10T14:43:38;1.10;99.90
33095;DHT22;19459;53.044;8.910;2022-12-10T14:46:09;1.10;99.90
33095;DHT22;19459;53.044;8.910;2022-12-10T14:48:41;1.10;99.90
33095;DHT22;19459;53.044;8.910;2022-12-10T14:51:19;1.10;99.90
33095;DHT22;19459;53.044;8.910;2022-12-10T14:53:49;1.20;99.90
33095;DHT22;19459;53.044;8.910;2022-12-10T14:56:34;1.10;99.90
33095;DHT22;19459;53.044;8.910;2022-12-10T14:59:06;1.10;99.90
33095;DHT22;19459;53.044;8.910;2022-12-10T15:01:36;1.10;99.90
33095;DHT22;19459;53.044;8.910;2022-12-10T15:04:05;1.00;99.90
33095;DHT22;19459;53.044;8.910;2022-12-10T15:06:36;1.10;99.90
33095;DHT22;19459;53.044;8.910;2022-12-10T15:09:03;1.10;99.90
33095;DHT22;19459;53.044;8.910;2022-12-10T15:11:30;1.10;99.90
33095;DHT22;19459;53.044;8.910;2022-12-10T15:14:04;1.00;99.90
33095;DHT22;19459;53.044;8.910;2022-12-10T15:16:44;1.00;99.90
33095;DHT22;19459;53.044;8.910;2022-12-10T15:19:23;0.90;99.90
33095;DHT22;19459;53.044;8.910;2022-12-10T15:21:50;0.90;99.90
33095;DHT22;19459;53.044;8.910;2022-12-10T15:26:53;1.00;99.90
33095;DHT22;19459;53.044;8.910;2022-12-10T15:32:04;0.90;99.90
33095;DHT22;19459;53.044;8.910;2022-12-10T15:34:53;0.90;99.90
33095;DHT22;19459;53.044;8.910;2022-12-10T15:37:27;0.90;99.90
33095;DHT22;19459;53.044;8.910;2022-12-10T15:40:01;0.90;99.90
33095;DHT22;19459;53.044;8.910;2022-12-10T15:42:45;1.00;99.90
33095;DHT22;19459;53.044;8.910;2022-12-10T15:45:22;1.00;99.90
33095;DHT22;19459;53.044;8.910;2022-12-10T15:47:52;1.00;99.90
33095;DHT22;19459;53.044;8.910;2022-12-10T15:50:20;1.00;99.90
33095;DHT22;19459;53.044;8.910;2022-12-10T15:52:46;1.10;99.90
33095;DHT22;19459;53.044;8.910;2022-12-10T15:55:13;1.00;99.90
33095;DHT22;19459;53.044;8.910;2022-12-10T15:57:42;1.10;99.90
33095;DHT22;19459;53.044;8.910;2022-12-10T16:00:20;1.00;99.90
33095;DHT22;19459;53.044;8.910;2022-12-10T16:03:04;1.00;99.90
33095;DHT22;19459;53.044;8.910;2022-12-10T16:05:35;1.00;99.90
33095;DHT22;19459;53.044;8.910;2022-12-10T16:08:17;1.00;99.90
33095;DHT22;19459;53.044;8.910;2022-12-10T16:10:49;1.00;99.90
33095;DHT22;19459;53.044;8.910;2022-12-10T16:13:28;1.00;99.90
33095;DHT22;19459;53.044;8.910;2022-12-10T16:16:09;1.00;99.90
33095;DHT22;19459;53.044;8.910;2022-12-10T16:18:36;0.90;99.90
33095;DHT22;19459;53.044;8.910;2022-12-10T16:21:03;0.90;99.90
33095;DHT22;19459;53.044;8.910;2022-12-10T16:23:31;0.90;99.90
33095;DHT22;19459;53.044;8.910;2022-12-10T16:25:57;0.90;99.90
33095;DHT22;19459;53.044;8.910;2022-12-10T16:28:23;0.80;99.90
33095;DHT22;19459;53.044;8.910;2022-12-10T16:30:50;0.80;99.90
33095;DHT22;19459;53.044;8.910;2022-12-10T16:33:18;0.70;99.90
33095;DHT22;19459;53.044;8.910;2022-12-10T16:35:46;0.70;99.90
33095;DHT22;19459;53.044;8.910;2022-12-10T16:38:12;0.70;99.90
33095;DHT22;19459;53.044;8.910;2022-12-10T16:40:39;0.70;99.90
33095;DHT22;19459;53.044;8.910;2022-12-10T16:43:11;0.60;99.90
33095;DHT22;19459;53.044;8.910;2022-12-10T16:45:39;0.60;99.90
33095;DHT22;19459;53.044;8.910;2022-12-10T16:48:05;0.70;99.90
33095;DHT22;19459;53.044;8.910;2022-12-10T16:50:32;0.60;99.90
33095;DHT22;19459;53.044;8.910;2022-12-10T16:53:02;0.60;99.90
33095;DHT22;19459;53.044;8.910;2022-12-10T16:55:35;0.60;99.90
33095;DHT22;19459;53.044;8.910;2022-12-10T16:58:00;0.60;99.90
33095;DHT22;19459;53.044;8.910;2022-12-10T17:00:26;0.70;99.90
33095;DHT22;19459;53.044;8.910;2022-12-10T17:02:53;0.70;99.90
33095;DHT22;19459;53.044;8.910;2022-12-10T17:05:31;0.70;99.90
33095;DHT22;19459;53.044;8.910;2022-12-10T17:08:02;0.70;99.90
33095;DHT22;19459;53.044;8.910;2022-12-10T17:10:28;0.70;99.90
33095;DHT22;19459;53.044;8.910;2022-12-10T17:13:13;0.70;99.90
33095;DHT22;19459;53.044;8.910;2022-12-10T17:15:41;0.70;99.90
33095;DHT22;19459;53.044;8.910;2022-12-10T17:18:16;0.70;99.90
33095;DHT22;19459;53.044;8.910;2022-12-10T17:20:43;0.60;99.90
33095;DHT22;19459;53.044;8.910;2022-12-10T17:23:10;0.60;99.90
33095;DHT22;19459;53.044;8.910;2022-12-10T17:25:36;0.60;99.90
33095;DHT22;19459;53.044;8.910;2022-12-10T17:28:03;0.60;99.90
33095;DHT22;19459;53.044;8.910;2022-12-10T17:30:29;0.50;99.90
33095;DHT22;19459;53.044;8.910;2022-12-10T17:32:55;0.60;99.90
33095;DHT22;19459;53.044;8.910;2022-12-10T17:35:21;0.50;99.90
33095;DHT22;19459;53.044;8.910;2022-12-10T17:37:48;0.60;99.90
33095;DHT22;19459;53.044;8.910;2022-12-10T17:40:20;0.50;99.90
33095;DHT22;19459;53.044;8.910;2022-12-10T17:42:46;0.50;99.90
33095;DHT22;19459;53.044;8.910;2022-12-10T17:45:14;0.50;99.90
33095;DHT22;19459;53.044;8.910;2022-12-10T17:47:41;0.50;99.90
33095;DHT22;19459;53.044;8.910;2022-12-10T17:50:24;0.50;99.90
33095;DHT22;19459;53.044;8.910;2022-12-10T17:52:54;0.50;99.90
33095;DHT22;19459;53.044;8.910;2022-12-10T17:55:21;0.50;99.90
33095;DHT22;19459;53.044;8.910;2022-12-10T17:57:47;0.40;99.90
33095;DHT22;19459;53.044;8.910;2022-12-10T18:00:17;0.40;99.90